FDB2MY VAAH-OMDB
Flight info
| Callsign | FDB2MY |
|---|---|
| Flight time | N/A |
| Altitude | 38000 |
| Route | AAE L639 RASKI L301 RAGMA N571 VUSET A454 PASOV B540 KUPMA/N0377F240 B540 MIVEK P574 IMPED |
| Aircraft | B38M/M-SDE1FGHILORVWXY/HB1 |
Departure
| Time | 2026-04-26 17:29 |
|---|---|
| Airport | Sardar Vallabh Patel International Airport (VAAH) |
Arrival
| Time | N/A |
|---|---|
| Airport | Dubai International Airport (OMDB) |
| Time | Latitude | Longitude | Altitude | Speed | Heading |
|---|---|---|---|---|---|
| 2026-04-26 17:04 | 23.07424 | 72.62508 | 188 ft | 0 kts | 316° |
| 2026-04-26 17:22 | 23.07406 | 72.62527 | 194 ft | 4 kts | 316° |
| 2026-04-26 17:22 | 23.07387 | 72.62545 | 194 ft | 4 kts | 333° |
| 2026-04-26 17:22 | 23.07363 | 72.62549 | 188 ft | 4 kts | 21° |
| 2026-04-26 17:23 | 23.07350 | 72.62539 | 200 ft | 1 kts | 46° |
| 2026-04-26 17:25 | 23.07350 | 72.62540 | 200 ft | 1 kts | 46° |
| 2026-04-26 17:25 | 23.07378 | 72.62573 | 191 ft | 11 kts | 46° |
| 2026-04-26 17:25 | 23.07450 | 72.62653 | 187 ft | 18 kts | 47° |
| 2026-04-26 17:26 | 23.07536 | 72.62753 | 194 ft | 14 kts | 54° |
| 2026-04-26 17:26 | 23.07531 | 72.62796 | 197 ft | 6 kts | 136° |
| 2026-04-26 17:26 | 23.07469 | 72.62866 | 201 ft | 17 kts | 115° |
| 2026-04-26 17:26 | 23.07550 | 72.63009 | 197 ft | 31 kts | 44° |
| 2026-04-26 17:27 | 23.07736 | 72.63204 | 198 ft | 43 kts | 45° |
| 2026-04-26 17:27 | 23.07942 | 72.63454 | 192 ft | 44 kts | 49° |
| 2026-04-26 17:27 | 23.08154 | 72.63694 | 202 ft | 42 kts | 45° |
| 2026-04-26 17:27 | 23.08356 | 72.63910 | 205 ft | 38 kts | 45° |
| 2026-04-26 17:28 | 23.08546 | 72.64115 | 198 ft | 35 kts | 44° |
| 2026-04-26 17:28 | 23.08582 | 72.64245 | 205 ft | 15 kts | 140° |
| 2026-04-26 17:28 | 23.08497 | 72.64276 | 208 ft | 12 kts | 215° |
| 2026-04-26 17:28 | 23.08435 | 72.64208 | 199 ft | 17 kts | 224° |
| 2026-04-26 17:29 | 23.08227 | 72.63986 | 207 ft | 80 kts | 225° |
| 2026-04-26 17:29 | 23.08070 | 72.63819 | 199 ft | 106 kts | 224° |
| 2026-04-26 17:29 | 23.06784 | 72.62441 | 418 ft | 188 kts | 225° |
| 2026-04-26 17:29 | 23.05951 | 72.61338 | 1260 ft | 184 kts | 241° |
| 2026-04-26 17:30 | 23.05545 | 72.60063 | 2164 ft | 184 kts | 259° |
| 2026-04-26 17:30 | 23.05208 | 72.58636 | 2616 ft | 208 kts | 251° |
| 2026-04-26 17:30 | 23.04593 | 72.57103 | 3134 ft | 231 kts | 248° |
| 2026-04-26 17:30 | 23.04138 | 72.56008 | 3623 ft | 239 kts | 248° |
| 2026-04-26 17:31 | 23.03444 | 72.54329 | 4391 ft | 251 kts | 248° |
| 2026-04-26 17:31 | 23.02719 | 72.52568 | 5099 ft | 264 kts | 247° |
| 2026-04-26 17:31 | 23.01959 | 72.50715 | 5951 ft | 271 kts | 247° |
| 2026-04-26 17:31 | 23.01187 | 72.48834 | 6865 ft | 275 kts | 247° |
| 2026-04-26 17:32 | 23.00406 | 72.46929 | 7792 ft | 278 kts | 246° |
| 2026-04-26 17:32 | 22.99615 | 72.44998 | 8715 ft | 281 kts | 246° |
| 2026-04-26 17:32 | 22.98813 | 72.43043 | 9638 ft | 285 kts | 246° |
| 2026-04-26 17:32 | 22.97996 | 72.41049 | 10315 ft | 297 kts | 246° |
| 2026-04-26 17:33 | 22.97127 | 72.38932 | 10772 ft | 314 kts | 246° |
| 2026-04-26 17:33 | 22.96223 | 72.36726 | 11380 ft | 325 kts | 246° |
| 2026-04-26 17:33 | 22.95305 | 72.34493 | 12152 ft | 329 kts | 246° |
| 2026-04-26 17:34 | 22.93407 | 72.29874 | 13595 ft | 341 kts | 246° |
| 2026-04-26 17:34 | 22.92430 | 72.27499 | 14244 ft | 346 kts | 246° |
| 2026-04-26 17:34 | 22.91441 | 72.25096 | 14926 ft | 349 kts | 246° |
| 2026-04-26 17:34 | 22.90446 | 72.22679 | 15585 ft | 353 kts | 246° |
| 2026-04-26 17:35 | 22.89440 | 72.20237 | 16249 ft | 357 kts | 246° |
| 2026-04-26 17:35 | 22.88422 | 72.17769 | 16880 ft | 361 kts | 246° |
| 2026-04-26 17:35 | 22.87392 | 72.15269 | 17498 ft | 364 kts | 245° |
| 2026-04-26 17:35 | 22.86374 | 72.12770 | 18103 ft | 368 kts | 246° |
| 2026-04-26 17:36 | 22.85345 | 72.10209 | 18632 ft | 371 kts | 246° |
| 2026-04-26 17:36 | 22.84308 | 72.07631 | 19161 ft | 374 kts | 246° |
| 2026-04-26 17:36 | 22.83260 | 72.05033 | 19706 ft | 377 kts | 246° |
| 2026-04-26 17:36 | 22.82205 | 72.02416 | 20227 ft | 380 kts | 246° |
| 2026-04-26 17:37 | 22.81153 | 71.99809 | 20738 ft | 382 kts | 246° |
| 2026-04-26 17:37 | 22.80082 | 71.97156 | 21260 ft | 386 kts | 246° |
| 2026-04-26 17:37 | 22.79000 | 71.94479 | 21755 ft | 389 kts | 246° |
| 2026-04-26 17:38 | 22.76808 | 71.89058 | 22778 ft | 394 kts | 246° |
| 2026-04-26 17:38 | 22.75710 | 71.86345 | 23269 ft | 397 kts | 246° |
| 2026-04-26 17:38 | 22.74594 | 71.83589 | 23682 ft | 400 kts | 246° |
| 2026-04-26 17:38 | 22.73481 | 71.80843 | 24103 ft | 403 kts | 246° |
| 2026-04-26 17:39 | 22.72350 | 71.78052 | 24515 ft | 405 kts | 246° |
| 2026-04-26 17:39 | 22.71211 | 71.75244 | 24923 ft | 408 kts | 246° |
| 2026-04-26 17:39 | 22.70063 | 71.72415 | 25328 ft | 411 kts | 246° |
| 2026-04-26 17:39 | 22.68910 | 71.69577 | 25715 ft | 413 kts | 246° |
| 2026-04-26 17:40 | 22.67744 | 71.66709 | 26107 ft | 416 kts | 246° |
| 2026-04-26 17:40 | 22.66971 | 71.64808 | 26361 ft | 418 kts | 246° |
| 2026-04-26 17:40 | 22.65409 | 71.60968 | 26874 ft | 421 kts | 246° |
| 2026-04-26 17:40 | 22.64221 | 71.58051 | 27252 ft | 423 kts | 246° |
| 2026-04-26 17:41 | 22.63026 | 71.55118 | 27616 ft | 426 kts | 246° |
| 2026-04-26 17:41 | 22.61822 | 71.52165 | 27988 ft | 429 kts | 246° |
| 2026-04-26 17:41 | 22.60614 | 71.49203 | 28366 ft | 431 kts | 246° |
| 2026-04-26 17:41 | 22.59416 | 71.46267 | 28719 ft | 433 kts | 246° |
| 2026-04-26 17:42 | 22.58195 | 71.43278 | 29078 ft | 436 kts | 246° |
| 2026-04-26 17:42 | 22.56961 | 71.40260 | 29418 ft | 438 kts | 246° |
| 2026-04-26 17:42 | 22.55720 | 71.37225 | 29762 ft | 441 kts | 246° |
| 2026-04-26 17:42 | 22.54476 | 71.34185 | 30077 ft | 443 kts | 246° |
| 2026-04-26 17:43 | 22.53225 | 71.31130 | 30378 ft | 445 kts | 246° |
| 2026-04-26 17:43 | 22.51965 | 71.28054 | 30687 ft | 447 kts | 246° |
| 2026-04-26 17:43 | 22.50712 | 71.24999 | 30979 ft | 449 kts | 246° |
| 2026-04-26 17:43 | 22.49441 | 71.21900 | 31266 ft | 451 kts | 246° |
| 2026-04-26 17:44 | 22.48163 | 71.18787 | 31562 ft | 453 kts | 246° |
| 2026-04-26 17:44 | 22.46879 | 71.15661 | 31843 ft | 455 kts | 246° |
| 2026-04-26 17:44 | 22.45589 | 71.12522 | 32138 ft | 457 kts | 246° |
| 2026-04-26 17:44 | 22.44309 | 71.09413 | 32421 ft | 458 kts | 246° |
| 2026-04-26 17:45 | 22.43004 | 71.06243 | 32704 ft | 460 kts | 246° |
| 2026-04-26 17:45 | 22.41698 | 71.03071 | 32978 ft | 462 kts | 245° |
| 2026-04-26 17:45 | 22.40403 | 70.99927 | 33274 ft | 463 kts | 245° |
| 2026-04-26 17:45 | 22.39091 | 70.96748 | 33626 ft | 463 kts | 245° |
| 2026-04-26 17:46 | 22.37780 | 70.93570 | 33991 ft | 462 kts | 245° |
| 2026-04-26 17:46 | 22.36473 | 70.90403 | 34330 ft | 460 kts | 245° |
| 2026-04-26 17:46 | 22.35168 | 70.87243 | 34711 ft | 457 kts | 246° |
| 2026-04-26 17:46 | 22.33888 | 70.84148 | 35074 ft | 454 kts | 246° |
| 2026-04-26 17:47 | 22.32609 | 70.81023 | 35447 ft | 451 kts | 248° |
| 2026-04-26 17:47 | 22.31986 | 70.78887 | 35647 ft | 450 kts | 259° |
| 2026-04-26 17:47 | 22.31833 | 70.74446 | 36072 ft | 447 kts | 276° |
| 2026-04-26 17:47 | 22.32187 | 70.71100 | 36315 ft | 447 kts | 276° |
| 2026-04-26 17:48 | 22.32563 | 70.67761 | 36566 ft | 446 kts | 276° |
| 2026-04-26 17:48 | 22.32959 | 70.64440 | 36837 ft | 445 kts | 276° |
| 2026-04-26 17:48 | 22.33369 | 70.61123 | 37113 ft | 443 kts | 276° |
| 2026-04-26 17:48 | 22.33777 | 70.57863 | 37379 ft | 442 kts | 276° |
| 2026-04-26 17:49 | 22.34193 | 70.54562 | 37632 ft | 441 kts | 276° |
| 2026-04-26 17:49 | 22.34606 | 70.51276 | 37844 ft | 440 kts | 276° |
| 2026-04-26 17:49 | 22.35423 | 70.44774 | 37840 ft | 437 kts | 276° |
| 2026-04-26 17:50 | 22.36239 | 70.38258 | 37845 ft | 437 kts | 276° |
| 2026-04-26 17:50 | 22.37051 | 70.31747 | 37843 ft | 437 kts | 276° |
| 2026-04-26 17:51 | 22.37862 | 70.25225 | 37840 ft | 438 kts | 276° |
| 2026-04-26 17:51 | 22.38668 | 70.18721 | 37843 ft | 438 kts | 276° |
| 2026-04-26 17:52 | 22.39474 | 70.12197 | 37837 ft | 438 kts | 276° |
| 2026-04-26 17:52 | 22.40278 | 70.05669 | 37837 ft | 438 kts | 276° |
| 2026-04-26 17:53 | 22.41074 | 69.99179 | 37836 ft | 438 kts | 276° |
| 2026-04-26 17:54 | 22.42274 | 69.89363 | 37832 ft | 438 kts | 276° |
| 2026-04-26 17:54 | 22.43065 | 69.82854 | 37833 ft | 439 kts | 276° |
| 2026-04-26 17:55 | 22.43861 | 69.76289 | 37831 ft | 439 kts | 276° |
| 2026-04-26 17:55 | 22.44649 | 69.69772 | 37829 ft | 439 kts | 276° |
| 2026-04-26 17:56 | 22.45439 | 69.63207 | 37824 ft | 439 kts | 276° |
| 2026-04-26 17:57 | 22.47008 | 69.50110 | 37824 ft | 440 kts | 276° |
| 2026-04-26 17:57 | 22.47791 | 69.43540 | 37822 ft | 440 kts | 276° |
| 2026-04-26 17:58 | 22.49345 | 69.30425 | 37819 ft | 441 kts | 277° |
| 2026-04-26 17:59 | 22.50512 | 69.20526 | 37817 ft | 441 kts | 277° |
| 2026-04-26 17:59 | 22.51284 | 69.13937 | 37819 ft | 442 kts | 277° |
| 2026-04-26 18:00 | 22.52050 | 69.07384 | 37835 ft | 442 kts | 277° |
| 2026-04-26 18:00 | 22.52819 | 69.00777 | 37820 ft | 442 kts | 277° |
| 2026-04-26 18:01 | 22.53585 | 68.94175 | 37825 ft | 442 kts | 277° |
| 2026-04-26 18:01 | 22.54341 | 68.87632 | 37818 ft | 443 kts | 277° |